Time;durP1;ratioP1;P1;durP2;ratioP2;P2;SDS_P1;SDS_P2;PMS_P1;PMS_P2;Temp;Humidity;BMP_temperature;BMP_pressure;BME280_temperature;BME280_humidity;BME280_pressure;Samples;Min_cycle;Max_cycle;Signal;HPM_P1;HPM_P2
2021/06/06 00:01:29;;;;;;;9.48;5.03;;;;;;;15.25;65.17;99976.95;1757619;80;20989;-74
2021/06/06 00:03:57;;;;;;;11.97;4.78;;;;;;;15.16;65.66;99978.28;1756761;79;21055;-71
2021/06/06 00:06:33;;;;;;;10.13;5.70;;;;;;;15.03;65.62;99979.71;1765626;80;20988;-76
2021/06/06 00:09:00;;;;;;;12.07;6.72;;;;;;;14.89;65.83;99978.50;1757181;79;21189;-75
2021/06/06 00:11:32;;;;;;;10.48;5.90;;;;;;;14.78;66.15;99981.44;1748468;79;21133;-75
2021/06/06 00:14:01;;;;;;;9.50;6.17;;;;;;;14.74;66.18;99978.25;1727467;80;21416;-75
2021/06/06 00:16:33;;;;;;;12.82;7.15;;;;;;;14.68;66.52;99972.75;1754557;80;20964;-75
2021/06/06 00:18:59;;;;;;;10.72;7.03;;;;;;;14.62;66.56;99974.20;1734902;80;20983;-75
2021/06/06 00:21:27;;;;;;;13.32;6.08;;;;;;;14.60;66.60;99981.01;1745464;80;21055;-75
2021/06/06 00:23:56;;;;;;;6.45;2.95;;;;;;;14.60;66.56;99981.50;1722648;81;21045;-75
2021/06/06 00:26:23;;;;;;;9.10;3.17;;;;;;;14.58;66.52;99978.17;1741599;79;21376;-75
2021/06/06 00:28:49;;;;;;;7.67;3.12;;;;;;;14.56;66.44;99972.16;1748909;79;20976;-75
2021/06/06 00:31:17;;;;;;;6.50;2.47;;;;;;;14.57;66.32;99980.47;1729847;79;21486;-75
2021/06/06 00:33:43;;;;;;;8.68;2.77;;;;;;;14.57;66.10;99974.69;1738580;81;21616;-75
2021/06/06 00:36:11;;;;;;;6.08;2.60;;;;;;;14.58;65.92;99978.17;1718250;80;21841;-75
2021/06/06 00:38:38;;;;;;;7.28;3.00;;;;;;;14.55;65.95;99977.97;1774245;80;20941;-75
2021/06/06 00:41:06;;;;;;;8.30;2.90;;;;;;;14.48;66.15;99974.80;1759772;79;21461;-76
2021/06/06 00:43:33;;;;;;;7.58;2.95;;;;;;;14.35;66.38;99973.83;1729631;80;21495;-76
2021/06/06 00:46:01;;;;;;;10.15;2.70;;;;;;;14.23;66.58;99975.91;1752151;79;21020;-76
2021/06/06 00:48:27;;;;;;;14.10;2.80;;;;;;;14.13;66.72;99971.19;1763560;80;21863;-76
2021/06/06 00:51:01;;;;;;;9.15;2.70;;;;;;;14.02;66.86;99979.41;1773849;80;20968;-76
2021/06/06 00:53:39;;;;;;;6.67;2.50;;;;;;;13.92;66.95;99970.69;1762318;80;21292;-74
2021/06/06 00:56:12;;;;;;;10.48;2.83;;;;;;;13.81;67.02;99973.09;1747691;79;20968;-74
2021/06/06 00:58:42;;;;;;;7.03;2.67;;;;;;;13.68;67.35;99973.94;1761920;80;21015;-75
2021/06/06 01:01:11;;;;;;;6.30;2.40;;;;;;;13.56;67.47;99980.46;1764944;80;22479;-71
2021/06/06 01:03:39;;;;;;;6.67;3.00;;;;;;;13.49;67.55;99982.88;1757125;80;20968;-73
2021/06/06 01:06:11;;;;;;;8.38;2.67;;;;;;;13.42;67.76;99980.50;1769491;80;21533;-73
2021/06/06 01:08:41;;;;;;;6.00;2.52;;;;;;;13.38;67.86;99985.25;1739396;82;21459;-73
2021/06/06 01:11:45;;;;;;;9.10;2.52;;;;;;;13.32;67.97;99982.38;1737862;80;21577;-74
2021/06/06 01:14:27;;;;;;;4.80;2.62;;;;;;;13.27;68.16;99986.78;1758782;79;21466;-74
2021/06/06 01:17:02;;;;;;;9.15;2.75;;;;;;;13.21;68.41;99977.25;1729688;80;21015;-74
2021/06/06 01:19:41;;;;;;;8.85;2.77;;;;;;;13.12;68.53;99983.78;1770860;80;20951;-75
2021/06/06 01:22:20;;;;;;;6.83;2.58;;;;;;;13.08;68.60;99982.39;1744457;79;21069;-75
2021/06/06 01:24:52;;;;;;;7.80;2.65;;;;;;;13.01;68.69;99983.95;1769862;80;21017;-74
2021/06/06 01:27:23;;;;;;;5.20;2.70;;;;;;;12.92;68.78;99983.99;1763100;79;21808;-76
2021/06/06 01:30:07;;;;;;;10.72;3.20;;;;;;;12.87;68.75;99987.09;1762762;80;20960;-74
2021/06/06 01:32:46;;;;;;;10.23;3.12;;;;;;;12.83;68.85;99985.70;1765542;79;20985;-74
2021/06/06 01:35:21;;;;;;;10.15;2.80;;;;;;;12.78;69.00;99982.67;1761148;79;21055;-74
2021/06/06 01:37:53;;;;;;;5.15;2.75;;;;;;;12.72;69.16;99983.23;1763075;80;20932;-75
2021/06/06 01:40:25;;;;;;;5.78;2.33;;;;;;;12.64;69.24;99981.30;1759575;80;22524;-75
2021/06/06 01:43:01;;;;;;;5.72;2.60;;;;;;;12.55;69.33;99986.17;1716392;81;21134;-74
2021/06/06 01:45:33;;;;;;;6.97;2.30;;;;;;;12.48;69.44;99988.55;1719354;80;21056;-74
2021/06/06 01:48:07;;;;;;;4.90;2.58;;;;;;;12.46;69.38;99983.06;1753234;79;21033;-74
2021/06/06 01:50:43;;;;;;;5.97;2.72;;;;;;;12.43;69.30;99990.78;1767897;79;21086;-75
2021/06/06 01:53:10;;;;;;;5.22;2.70;;;;;;;12.38;69.25;99983.77;1754733;79;21839;-74
2021/06/06 01:55:46;;;;;;;5.55;2.70;;;;;;;12.32;69.35;99977.70;1750677;79;20929;-74
2021/06/06 01:58:13;;;;;;;;;;;;;;;12.27;69.42;99972.85;1773024;80;21075;-74
2021/06/06 02:01:12;;;;;;;3.98;2.47;;;;;;;12.26;69.62;99975.64;1764230;80;21311;-73
2021/06/06 02:03:40;;;;;;;7.58;2.40;;;;;;;12.23;69.84;99971.94;1763223;79;21035;-74
2021/06/06 02:06:12;;;;;;;6.22;2.50;;;;;;;12.18;70.06;99973.70;1773501;79;22470;-72
2021/06/06 02:08:40;;;;;;;6.10;2.40;;;;;;;12.17;70.19;99972.03;1754272;80;20995;-72
2021/06/06 02:11:31;;;;;;;5.05;2.72;;;;;;;12.15;70.35;99973.13;1728009;81;20978;-72
2021/06/06 02:14:05;;;;;;;5.42;2.55;;;;;;;12.14;70.45;99974.11;1758810;79;20984;-72
2021/06/06 02:16:38;;;;;;;10.10;2.60;;;;;;;12.13;70.51;99976.41;1763063;79;21750;-73
2021/06/06 02:19:07;;;;;;;8.33;2.58;;;;;;;12.13;70.64;99969.80;1774882;80;21833;-73
2021/06/06 02:21:36;;;;;;;4.87;2.50;;;;;;;12.13;70.77;99972.44;1753412;80;21000;-73
2021/06/06 02:24:04;;;;;;;6.08;2.80;;;;;;;12.14;70.85;99973.62;1739858;80;20888;-72
2021/06/06 02:26:48;;;;;;;4.90;2.58;;;;;;;12.15;70.99;99975.78;1747906;81;21427;-70
2021/06/06 02:29:50;;;;;;;6.40;2.83;;;;;;;12.17;71.14;99975.17;1751727;78;20984;-73
2021/06/06 02:32:45;;;;;;;6.87;2.77;;;;;;;12.19;71.24;99978.02;1744554;80;22259;-73
2021/06/06 02:35:30;;;;;;;9.78;2.60;;;;;;;12.23;71.39;99978.55;1757043;80;21382;-72
2021/06/06 02:38:19;;;;;;;6.83;2.87;;;;;;;12.25;71.60;99974.78;1777181;79;20910;-72
2021/06/06 02:40:58;;;;;;;13.65;3.47;;;;;;;12.29;71.83;99971.37;1775458;79;21161;-72
2021/06/06 02:43:49;;;;;;;8.45;4.90;;;;;;;12.35;72.04;99975.25;1757578;80;21020;-72
2021/06/06 02:46:19;;;;;;;10.10;4.58;;;;;;;12.41;72.20;99976.85;1763592;80;22355;-72
2021/06/06 02:48:49;;;;;;;6.87;4.12;;;;;;;12.47;72.31;99976.29;1759632;79;20961;-72
2021/06/06 02:51:21;;;;;;;7.28;3.20;;;;;;;12.52;72.31;99977.16;1767644;79;20944;-72
2021/06/06 02:54:01;;;;;;;12.28;3.40;;;;;;;12.57;72.28;99973.13;1759923;80;20936;-72
2021/06/06 02:56:40;;;;;;;4.67;2.65;;;;;;;12.61;72.27;99973.66;1722942;80;20949;-71
2021/06/06 02:59:18;;;;;;;5.20;3.00;;;;;;;12.67;72.37;99971.77;1731594;80;22395;-72
2021/06/06 03:01:53;;;;;;;7.22;2.90;;;;;;;12.72;72.38;99969.50;1763876;80;20972;-72
2021/06/06 03:04:24;;;;;;;8.08;2.85;;;;;;;12.77;72.43;99966.42;1770585;80;20944;-72
2021/06/06 03:07:04;;;;;;;9.13;3.47;;;;;;;12.81;72.56;99967.30;1707222;81;21830;-72
2021/06/06 03:09:32;;;;;;;8.58;3.10;;;;;;;12.85;72.68;99966.05;1741297;82;21557;-72
2021/06/06 03:12:03;;;;;;;9.88;2.80;;;;;;;12.90;73.00;99969.56;1693729;83;22570;-72
2021/06/06 03:14:30;;;;;;;8.20;2.58;;;;;;;12.96;73.35;99961.53;1736162;81;20956;-72
2021/06/06 03:17:05;;;;;;;6.90;3.20;;;;;;;13.04;73.61;99970.42;1740248;82;21408;-72
2021/06/06 03:19:36;;;;;;;10.93;3.33;;;;;;;13.10;73.84;99969.81;1698604;82;21522;-72
2021/06/06 03:22:06;;;;;;;8.80;3.12;;;;;;;13.16;73.97;99965.75;1741443;82;21067;-72
2021/06/06 03:24:48;;;;;;;5.10;3.00;;;;;;;13.24;74.26;99971.18;1726122;81;21024;-72
2021/06/06 03:27:15;;;;;;;6.25;3.30;;;;;;;13.29;74.37;99973.38;1758893;80;21023;-71
2021/06/06 03:30:16;;;;;;;7.15;3.40;;;;;;;13.33;74.49;99967.63;1675075;81;21015;-72
2021/06/06 03:32:45;;;;;;;7.00;3.20;;;;;;;13.37;74.55;99967.67;1729860;81;21055;-72
2021/06/06 03:35:12;;;;;;;6.03;3.12;;;;;;;13.44;74.64;99967.42;1710055;82;21016;-72
2021/06/06 03:37:40;;;;;;;5.83;3.20;;;;;;;13.50;74.66;99972.59;1695815;81;22475;-74
2021/06/06 03:40:15;;;;;;;7.10;3.20;;;;;;;13.56;74.60;99968.03;1708218;82;21036;-74
2021/06/06 03:42:44;;;;;;;7.78;3.05;;;;;;;13.60;74.60;99962.75;1673207;83;21033;-73
2021/06/06 03:45:13;;;;;;;9.45;3.20;;;;;;;13.66;74.54;99967.95;1661609;83;21020;-73
2021/06/06 03:47:41;;;;;;;5.20;2.90;;;;;;;13.67;74.55;99963.81;1684829;83;21406;-71
2021/06/06 03:50:10;;;;;;;7.20;2.98;;;;;;;13.73;74.42;99962.39;1695856;84;21840;-73
2021/06/06 03:52:40;;;;;;;8.70;3.20;;;;;;;13.79;74.25;99964.91;1690749;83;21624;-73
2021/06/06 03:55:11;;;;;;;5.85;3.00;;;;;;;13.82;74.30;99963.30;1688625;84;21136;-73
2021/06/06 03:57:38;;;;;;;7.22;3.47;;;;;;;13.84;74.18;99971.45;1682000;83;21123;-72
2021/06/06 04:00:11;;;;;;;9.43;3.50;;;;;;;13.87;73.97;99971.13;1688551;82;21110;-72
2021/06/06 04:02:39;;;;;;;7.78;3.60;;;;;;;13.95;73.51;99977.01;1646833;83;22648;-72
2021/06/06 04:05:10;;;;;;;10.68;4.22;;;;;;;14.04;73.21;99976.09;1742936;81;21415;-71
2021/06/06 04:07:37;;;;;;;5.12;3.77;;;;;;;14.13;73.13;99979.16;1742628;81;20952;-72
2021/06/06 04:10:07;;;;;;;8.08;3.60;;;;;;;14.21;73.00;99981.88;1745880;82;21047;-72
2021/06/06 04:12:34;;;;;;;6.15;4.35;;;;;;;14.31;72.99;99977.30;1743110;82;21063;-72
2021/06/06 04:15:05;;;;;;;12.65;3.98;;;;;;;14.41;73.05;99977.70;1733431;82;21860;-72
2021/06/06 04:17:32;;;;;;;11.40;4.17;;;;;;;14.50;73.24;99977.63;1739361;80;21055;-71
2021/06/06 04:20:01;;;;;;;11.57;4.00;;;;;;;14.59;73.41;99973.20;1719279;81;20972;-72
2021/06/06 04:22:29;;;;;;;9.90;4.22;;;;;;;14.67;73.42;99981.69;1709620;82;21487;-73
2021/06/06 04:24:58;;;;;;;11.97;3.95;;;;;;;14.71;73.31;99980.40;1724665;81;21082;-72
2021/06/06 04:27:24;;;;;;;11.80;3.85;;;;;;;14.76;73.16;99977.58;1737793;82;21796;-72
2021/06/06 04:29:52;;;;;;;6.75;3.05;;;;;;;14.80;73.15;99976.30;1698566;81;21022;-71
2021/06/06 04:32:19;;;;;;;7.53;4.25;;;;;;;14.84;73.03;99974.97;1740479;80;21028;-72
2021/06/06 04:34:48;;;;;;;9.38;3.50;;;;;;;14.89;73.06;99978.50;1757818;80;20968;-73
2021/06/06 04:37:16;;;;;;;8.08;3.67;;;;;;;14.93;73.19;99978.51;1749836;80;21510;-73
2021/06/06 04:39:43;;;;;;;8.38;3.60;;;;;;;14.99;73.04;99984.53;1735964;80;22479;-73
2021/06/06 04:42:10;;;;;;;10.10;3.50;;;;;;;15.05;73.00;99987.03;1771780;80;21315;-73
2021/06/06 04:44:37;;;;;;;10.90;3.87;;;;;;;15.10;72.52;99986.06;1743620;80;21036;-73
2021/06/06 04:47:11;;;;;;;10.85;4.50;;;;;;;15.16;72.16;99988.09;1747320;81;21099;-73
2021/06/06 04:49:37;;;;;;;6.53;3.75;;;;;;;15.23;71.83;99987.77;1729567;80;21026;-72
2021/06/06 04:52:05;;;;;;;12.45;3.58;;;;;;;15.29;71.48;99984.47;1757439;80;21860;-70
2021/06/06 04:54:34;;;;;;;8.98;3.65;;;;;;;15.36;70.85;99984.67;1756930;80;21084;-73
2021/06/06 04:57:02;;;;;;;10.38;3.42;;;;;;;15.41;70.18;99984.50;1733365;79;20973;-74
2021/06/06 04:59:35;;;;;;;6.95;3.30;;;;;;;15.47;69.83;99987.02;1759083;78;21113;-74
2021/06/06 05:02:00;;;;;;;7.70;3.35;;;;;;;15.53;69.25;99981.53;1747781;79;21062;-74
2021/06/06 05:04:28;;;;;;;8.18;3.15;;;;;;;15.61;68.30;99988.23;1757587;80;21813;-74
2021/06/06 05:06:55;;;;;;;8.75;3.70;;;;;;;15.68;67.81;99985.27;1765941;80;21144;-74
2021/06/06 05:09:23;;;;;;;12.18;3.25;;;;;;;15.76;67.42;99979.13;1760248;80;21456;-74
2021/06/06 05:11:51;;;;;;;6.65;2.80;;;;;;;15.83;66.57;99980.14;1754485;79;21081;-74
2021/06/06 05:14:19;;;;;;;11.88;2.72;;;;;;;15.86;65.78;99981.95;1746014;79;20993;-73
2021/06/06 05:16:48;;;;;;;8.73;2.60;;;;;;;15.92;65.08;99979.11;1776111;79;22353;-73
2021/06/06 05:19:16;;;;;;;10.00;2.83;;;;;;;15.98;64.85;99979.80;1759532;80;20995;-73
2021/06/06 05:21:43;;;;;;;7.10;2.60;;;;;;;16.05;64.36;99981.30;1751515;80;20996;-72
2021/06/06 05:24:10;;;;;;;6.17;2.20;;;;;;;16.11;63.51;99980.62;1739185;80;21020;-73
2021/06/06 05:26:37;;;;;;;12.65;2.60;;;;;;;16.15;62.33;99985.46;1777480;80;21402;-73
2021/06/06 05:29:05;;;;;;;6.30;2.40;;;;;;;16.18;61.99;99978.45;1744244;80;22477;-71
2021/06/06 05:31:33;;;;;;;7.22;2.72;;;;;;;16.23;61.83;99981.46;1746973;80;20957;-71
2021/06/06 05:33:59;;;;;;;5.00;2.10;;;;;;;16.33;61.67;99985.28;1724903;82;20952;-70
2021/06/06 05:36:26;;;;;;;8.40;2.22;;;;;;;16.41;60.87;99982.61;1769979;80;21119;-73
2021/06/06 05:38:53;;;;;;;5.22;2.20;;;;;;;16.47;60.36;99989.09;1762866;80;21490;-72
2021/06/06 05:41:20;;;;;;;8.58;2.50;;;;;;;16.52;60.07;99989.42;1769158;80;21926;-72
2021/06/06 05:43:47;;;;;;;4.78;2.27;;;;;;;16.59;59.49;99989.88;1757106;79;21012;-72
2021/06/06 05:46:19;;;;;;;7.58;2.75;;;;;;;16.65;59.55;99995.55;1766674;80;20972;-73
2021/06/06 05:48:45;;;;;;;6.25;2.27;;;;;;;16.69;59.68;99994.23;1733846;79;21519;-73
2021/06/06 05:51:12;;;;;;;3.72;2.17;;;;;;;16.69;59.61;99993.73;1710553;80;20953;-69
2021/06/06 05:53:47;;;;;;;5.83;2.10;;;;;;;16.69;59.78;99991.06;1749450;80;21936;-71
2021/06/06 05:56:14;;;;;;;8.13;2.12;;;;;;;16.73;59.85;99994.23;1763412;80;20921;-70
2021/06/06 05:58:41;;;;;;;7.20;2.22;;;;;;;16.77;59.36;99992.88;1749701;80;20941;-69
2021/06/06 06:01:07;;;;;;;6.47;2.10;;;;;;;16.79;59.06;99993.53;1753863;79;21463;-69
2021/06/06 06:03:37;;;;;;;7.78;2.40;;;;;;;16.84;59.05;99996.03;1726047;80;21040;-70
2021/06/06 06:06:04;;;;;;;4.85;2.35;;;;;;;16.92;59.10;99998.36;1743252;80;21915;-70
2021/06/06 06:08:38;;;;;;;5.50;2.45;;;;;;;16.91;58.49;99996.19;1750542;80;21063;-72
2021/06/06 06:11:09;;;;;;;4.72;2.65;;;;;;;16.91;58.64;99994.86;1751689;80;20972;-72
2021/06/06 06:13:37;;;;;;;5.35;2.20;;;;;;;16.92;59.16;100007.19;1749441;78;20924;-75
2021/06/06 06:16:08;;;;;;;5.78;2.47;;;;;;;16.92;59.65;100003.19;1777982;80;21012;-70
2021/06/06 06:18:34;;;;;;;4.87;2.40;;;;;;;16.92;60.17;100002.36;1761612;79;21812;-72
2021/06/06 06:21:06;;;;;;;5.10;2.40;;;;;;;16.96;60.70;100002.33;1736904;82;21581;-74
2021/06/06 06:23:33;;;;;;;6.08;2.02;;;;;;;17.02;60.85;99999.81;1729408;82;21046;-74
2021/06/06 06:26:00;;;;;;;3.60;2.10;;;;;;;17.07;60.52;100001.95;1716305;82;21034;-73
2021/06/06 06:28:26;;;;;;;7.85;2.08;;;;;;;17.02;59.93;100003.81;1700912;83;21077;-70
2021/06/06 06:31:10;;;;;;;6.92;1.98;;;;;;;16.96;59.61;99996.49;1698115;83;21864;-69
2021/06/06 06:33:48;;;;;;;7.50;2.02;;;;;;;16.89;59.69;100000.88;1685951;82;21040;-70
2021/06/06 06:36:17;;;;;;;6.42;2.12;;;;;;;16.86;60.13;100010.03;1675461;83;21004;-71
2021/06/06 06:38:50;;;;;;;6.00;2.08;;;;;;;16.87;60.47;99997.52;1690494;82;21586;-74
2021/06/06 06:41:28;;;;;;;7.42;1.90;;;;;;;16.89;61.08;99996.88;1714857;82;21088;-74
2021/06/06 06:43:55;;;;;;;4.42;2.08;;;;;;;16.86;60.88;100003.36;1723561;82;21814;-70
2021/06/06 06:46:23;;;;;;;8.88;1.98;;;;;;;16.85;61.21;100000.36;1736896;81;21095;-72
2021/06/06 06:48:52;;;;;;;3.47;1.98;;;;;;;16.85;60.97;99998.20;1755065;80;21031;-74
2021/06/06 06:51:18;;;;;;;3.42;1.75;;;;;;;16.83;60.79;100001.55;1732166;80;21461;-70
2021/06/06 06:53:48;;;;;;;7.05;1.87;;;;;;;16.86;61.27;99999.86;1744499;82;21487;-72
2021/06/06 06:56:14;;;;;;;2.75;1.60;;;;;;;16.92;61.19;99996.52;1734193;82;21765;-70
2021/06/06 06:58:42;;;;;;;4.28;2.05;;;;;;;16.96;60.88;99997.83;1692912;83;21421;-71
2021/06/06 07:01:10;;;;;;;3.58;1.70;;;;;;;16.97;60.76;99999.98;1757394;80;21025;-71
2021/06/06 07:03:37;;;;;;;5.45;1.80;;;;;;;16.95;59.78;100003.34;1761741;79;20985;-70
2021/06/06 07:06:05;;;;;;;4.22;1.60;;;;;;;16.83;59.29;99994.88;1758775;80;21114;-70
2021/06/06 07:08:36;;;;;;;3.90;1.60;;;;;;;16.75;59.63;99998.39;1769180;80;21496;-70
2021/06/06 07:11:06;;;;;;;4.92;1.85;;;;;;;16.68;60.20;99993.40;1724967;81;21474;-68
2021/06/06 07:13:33;;;;;;;5.85;1.70;;;;;;;16.65;60.46;99995.05;1702506;81;20977;-71
2021/06/06 07:16:02;;;;;;;5.25;2.05;;;;;;;16.68;60.59;99993.40;1744865;80;20936;-70
2021/06/06 07:18:30;;;;;;;9.50;1.80;;;;;;;16.72;60.68;99996.58;1767548;79;20904;-69
2021/06/06 07:21:00;;;;;;;5.47;1.90;;;;;;;16.78;61.36;99994.04;1757962;80;21838;-71
2021/06/06 07:23:28;;;;;;;5.75;2.00;;;;;;;16.94;61.86;99990.50;1733842;80;20941;-70
2021/06/06 07:25:56;;;;;;;9.43;1.85;;;;;;;17.08;61.15;99993.80;1754020;80;20992;-71
2021/06/06 07:28:24;;;;;;;6.28;1.92;;;;;;;17.16;59.61;99988.40;1747937;80;21313;-72
2021/06/06 07:30:55;;;;;;;5.37;1.80;;;;;;;17.22;59.97;99994.06;1752830;80;20993;-72
2021/06/06 07:33:25;;;;;;;3.58;2.08;;;;;;;17.27;59.70;99996.52;1745484;80;21870;-71
2021/06/06 07:35:52;;;;;;;6.72;1.80;;;;;;;17.32;59.11;99990.68;1737347;79;21455;-71
2021/06/06 07:38:21;;;;;;;4.47;1.70;;;;;;;17.35;58.96;99989.81;1763840;80;20932;-72
2021/06/06 07:40:49;;;;;;;7.65;1.87;;;;;;;17.34;58.50;99992.66;1756023;80;21126;-71
2021/06/06 07:43:15;;;;;;;3.67;1.70;;;;;;;17.26;57.87;99994.86;1716916;82;20996;-71
2021/06/06 07:45:42;;;;;;;5.35;1.85;;;;;;;17.20;58.22;100000.09;1723572;82;22300;-70
2021/06/06 07:48:09;;;;;;;6.40;1.67;;;;;;;17.20;59.60;99996.08;1718156;82;21011;-69
2021/06/06 07:50:39;;;;;;;5.85;1.90;;;;;;;17.23;60.22;99999.23;1684494;82;21028;-71
2021/06/06 07:53:05;;;;;;;3.17;1.60;;;;;;;17.35;60.83;99995.16;1743920;80;21120;-72
2021/06/06 07:55:34;;;;;;;3.33;1.42;;;;;;;17.38;60.25;99998.83;1721137;82;21087;-77
2021/06/06 07:58:01;;;;;;;2.15;1.60;;;;;;;17.30;59.70;99999.38;1726010;80;21814;-71
2021/06/06 08:00:33;;;;;;;3.37;1.60;;;;;;;17.18;60.32;100002.94;1738614;78;21024;-76
2021/06/06 08:03:01;;;;;;;5.10;1.40;;;;;;;17.17;60.81;100007.41;1744693;80;21106;-78
2021/06/06 08:05:28;;;;;;;6.95;1.60;;;;;;;17.26;60.85;100010.05;1766216;80;21242;-75
2021/06/06 08:07:55;;;;;;;6.42;1.50;;;;;;;17.33;60.97;100003.84;1728870;80;21044;-78
2021/06/06 08:10:24;;;;;;;3.65;1.50;;;;;;;17.38;60.57;100006.02;1749247;80;21822;-77
2021/06/06 08:12:50;;;;;;;3.60;1.70;;;;;;;17.44;60.54;99999.45;1755673;79;21471;-80
2021/06/06 08:15:18;;;;;;;2.52;1.47;;;;;;;17.48;60.50;99996.45;1741933;81;21023;-76
2021/06/06 08:17:44;;;;;;;5.35;1.70;;;;;;;17.52;60.70;99990.56;1741015;80;21043;-81
2021/06/06 08:20:18;;;;;;;6.30;1.47;;;;;;;17.55;60.46;99995.55;1720647;81;20973;-79
2021/06/06 08:22:45;;;;;;;3.42;1.70;;;;;;;17.55;60.45;99997.38;1717568;81;21821;-79
2021/06/06 08:25:13;;;;;;;5.35;1.70;;;;;;;17.62;60.09;100003.69;1757723;79;21387;-79
2021/06/06 08:27:42;;;;;;;4.05;1.50;;;;;;;17.62;59.36;100003.69;1756778;80;21189;-79
2021/06/06 08:30:16;;;;;;;6.47;1.72;;;;;;;17.51;58.84;99998.75;1760951;80;21443;-76
2021/06/06 08:32:43;;;;;;;5.72;1.52;;;;;;;17.48;58.99;99999.12;1768050;80;20917;-83
2021/06/06 08:35:10;;;;;;;3.67;1.32;;;;;;;17.50;59.82;99993.92;1752757;79;22847;-81
2021/06/06 08:37:37;;;;;;;3.40;1.60;;;;;;;17.64;60.03;100003.83;1718054;80;21561;-75
2021/06/06 08:40:09;;;;;;;3.90;1.62;;;;;;;17.78;59.76;100007.64;1707923;81;20952;-73
2021/06/06 08:42:41;;;;;;;3.25;1.47;;;;;;;17.74;59.07;100004.47;1723786;81;26830;-73
2021/06/06 08:45:30;;;;;;;6.65;1.70;;;;;;;17.62;59.42;100007.19;1738570;79;21435;-75
2021/06/06 08:48:00;;;;;;;3.70;1.70;;;;;;;17.57;59.70;100000.73;1694049;83;21071;-78
2021/06/06 08:50:32;;;;;;;4.97;1.65;;;;;;;17.59;59.80;100006.22;1738700;78;21447;-78
2021/06/06 08:53:22;;;;;;;5.58;1.75;;;;;;;17.49;60.16;100008.28;1730398;80;20961;-75
2021/06/06 08:56:18;;;;;;;4.20;1.50;;;;;;;17.44;60.24;100003.95;1731686;80;21019;-79
2021/06/06 08:59:03;;;;;;;4.72;1.80;;;;;;;17.25;61.22;100013.73;1759031;79;21450;-78
2021/06/06 09:01:58;;;;;;;4.17;1.60;;;;;;;17.00;61.24;100007.67;1745740;79;21807;-78
2021/06/06 09:04:32;;;;;;;5.55;1.60;;;;;;;16.83;61.83;100006.37;1708146;82;21190;-77
2021/06/06 09:07:38;;;;;;;4.10;1.50;;;;;;;16.74;62.58;100011.40;1730023;80;21420;-76
2021/06/06 09:10:16;;;;;;;6.67;1.90;;;;;;;16.83;63.29;100010.37;1731690;78;21529;-74
2021/06/06 09:12:43;;;;;;;3.50;1.70;;;;;;;16.91;63.37;100013.53;1764831;80;20961;-74
2021/06/06 09:15:14;;;;;;;3.17;1.65;;;;;;;16.99;63.22;100016.18;1754909;79;21856;-75
2021/06/06 09:17:49;;;;;;;2.77;1.90;;;;;;;17.00;63.01;100008.50;1760471;79;20975;-72
2021/06/06 09:20:37;;;;;;;4.80;1.80;;;;;;;16.84;63.00;100011.20;1738633;78;21018;-73
2021/06/06 09:23:11;;;;;;;5.92;1.98;;;;;;;16.70;63.60;100007.42;1762202;78;20972;-73
2021/06/06 09:25:42;;;;;;;4.22;1.90;;;;;;;16.65;64.07;100010.22;1725014;80;21088;-73
2021/06/06 09:28:23;;;;;;;4.55;2.10;;;;;;;16.65;64.20;100009.72;1759278;79;21856;-74
2021/06/06 09:31:00;;;;;;;7.28;2.30;;;;;;;16.66;64.20;100008.72;1759062;78;20932;-72
2021/06/06 09:33:53;;;;;;;5.80;2.00;;;;;;;16.66;64.38;100011.38;1749434;80;21617;-75
2021/06/06 09:36:28;;;;;;;7.10;2.20;;;;;;;16.74;64.88;100011.40;1728563;81;21071;-74
2021/06/06 09:39:07;;;;;;;6.15;2.17;;;;;;;16.96;64.87;100013.83;1763207;79;21429;-73
2021/06/06 09:41:40;;;;;;;5.72;2.10;;;;;;;17.02;64.59;100003.81;1754334;80;21753;-73
2021/06/06 09:44:22;;;;;;;3.00;2.00;;;;;;;17.12;64.50;100011.11;1740342;79;21027;-73
2021/06/06 09:47:09;;;;;;;2.22;1.90;;;;;;;17.17;63.84;100006.08;1748741;80;22545;-73
2021/06/06 09:49:39;;;;;;;7.15;2.15;;;;;;;17.21;63.65;100003.08;1762486;80;21110;-73
2021/06/06 09:52:21;;;;;;;3.80;2.20;;;;;;;17.30;63.35;100008.71;1767339;79;21031;-72
2021/06/06 09:54:58;;;;;;;4.67;1.70;;;;;;;17.27;63.05;100003.70;1770979;79;22253;-72
2021/06/06 09:57:35;;;;;;;4.75;2.30;;;;;;;17.16;63.65;100010.25;1740684;79;20996;-74
2021/06/06 10:00:22;;;;;;;4.90;2.20;;;;;;;17.04;64.35;100008.47;1778663;79;21154;-73
2021/06/06 10:03:00;;;;;;;5.08;2.47;;;;;;;16.91;65.46;100002.03;1755184;80;21438;-74
2021/06/06 10:05:39;;;;;;;4.67;2.10;;;;;;;16.73;66.56;100011.07;1764022;80;21035;-72
2021/06/06 10:08:26;;;;;;;8.28;2.27;;;;;;;16.61;66.43;100007.08;1738488;80;21114;-74
2021/06/06 10:11:15;;;;;;;7.72;2.50;;;;;;;16.54;66.48;100007.41;1763315;78;21173;-71
2021/06/06 10:13:46;;;;;;;4.47;2.10;;;;;;;16.54;66.68;100001.58;1738059;79;21043;-72
2021/06/06 10:16:23;;;;;;;6.25;1.98;;;;;;;16.59;66.95;100011.72;1773006;79;21052;-73
2021/06/06 10:19:14;;;;;;;4.30;1.95;;;;;;;16.62;66.09;100007.91;1719570;81;21036;-72
2021/06/06 10:21:41;;;;;;;3.20;1.90;;;;;;;16.61;66.39;100013.73;1752316;79;21835;-72
2021/06/06 10:24:15;;;;;;;5.85;2.30;;;;;;;16.68;66.41;100012.07;1769275;80;21464;-73
2021/06/06 10:26:56;;;;;;;4.33;2.00;;;;;;;16.66;66.15;100011.88;1764460;80;21038;-73
2021/06/06 10:29:31;;;;;;;6.20;1.87;;;;;;;16.71;65.81;100009.59;1771400;80;21400;-74
2021/06/06 10:32:17;;;;;;;4.45;2.05;;;;;;;16.59;65.69;100011.72;1757440;79;21444;-71
2021/06/06 10:35:06;;;;;;;6.40;2.60;;;;;;;16.49;66.04;100009.23;1743562;80;22401;-72
2021/06/06 10:37:34;;;;;;;6.03;2.00;;;;;;;16.36;66.13;100003.59;1756727;80;21146;-71
2021/06/06 10:40:08;;;;;;;4.92;2.50;;;;;;;16.33;66.68;99999.94;1763639;79;21133;-73
2021/06/06 10:42:46;;;;;;;4.15;2.27;;;;;;;16.39;67.19;99998.42;1768007;79;21087;-73
2021/06/06 10:45:31;;;;;;;6.50;2.22;;;;;;;16.36;67.33;99998.77;1766256;80;20920;-78
2021/06/06 10:48:15;;;;;;;5.92;2.27;;;;;;;16.34;67.87;99990.95;1753919;80;21868;-75
2021/06/06 10:50:47;;;;;;;10.18;2.30;;;;;;;16.30;68.22;99997.09;1749325;79;22004;-85
2021/06/06 10:53:24;;;;;;;5.33;2.47;;;;;;;16.41;68.60;99989.28;1745418;80;21017;-72
2021/06/06 10:56:08;;;;;;;3.87;2.22;;;;;;;16.58;68.56;99984.73;1707061;82;21044;-77
2021/06/06 10:58:50;;;;;;;;;;;;;;;16.63;67.58;99984.23;1660049;84;21069;-76
2021/06/06 11:01:38;;;;;;;7.60;2.60;;;;;;;16.70;66.82;99978.59;1730763;80;22274;-74
2021/06/06 11:04:20;;;;;;;3.55;2.15;;;;;;;16.75;66.72;99972.23;1727843;80;21107;-73
2021/06/06 11:06:51;;;;;;;6.72;2.10;;;;;;;16.92;66.58;99972.51;1738260;80;21034;-74
2021/06/06 11:09:26;;;;;;;5.78;2.20;;;;;;;17.15;65.84;99967.23;1735806;80;21099;-73
2021/06/06 11:12:10;;;;;;;5.37;2.02;;;;;;;17.34;65.00;99961.45;1716647;80;20948;-72
2021/06/06 11:14:46;;;;;;;6.12;2.30;;;;;;;17.51;64.25;99954.70;1739740;80;25297;-75
2021/06/06 11:17:38;;;;;;;6.15;1.95;;;;;;;17.67;63.01;99955.94;1738397;80;21054;-73
2021/06/06 11:20:27;;;;;;;5.62;2.22;;;;;;;17.84;62.36;99948.64;1680701;82;21033;-74
2021/06/06 11:22:54;;;;;;;4.20;1.90;;;;;;;18.07;62.20;99948.13;1752754;80;21189;-73
2021/06/06 11:25:44;;;;;;;6.12;2.35;;;;;;;18.32;61.20;99938.02;1713374;82;21379;-72
2021/06/06 11:28:36;;;;;;;5.90;2.10;;;;;;;18.47;60.91;99935.38;1756169;79;21760;-71
2021/06/06 11:31:07;;;;;;;8.98;2.17;;;;;;;18.64;60.30;99930.69;1764758;79;20991;-70
2021/06/06 11:33:47;;;;;;;5.37;2.30;;;;;;;18.79;59.50;99927.52;1751201;79;21072;-81
2021/06/06 11:36:14;;;;;;;4.70;2.00;;;;;;;18.88;58.48;99931.23;1771158;79;20937;-73
2021/06/06 11:38:44;;;;;;;4.65;2.15;;;;;;;18.91;57.77;99931.87;1705203;80;20952;-72
2021/06/06 11:41:29;;;;;;;7.60;2.08;;;;;;;18.82;57.74;99927.16;1759126;79;21810;-73
2021/06/06 11:44:16;;;;;;;5.33;2.30;;;;;;;18.74;58.02;99920.56;1736334;79;21032;-77
2021/06/06 11:46:58;;;;;;;7.20;2.10;;;;;;;18.73;58.60;99925.59;1700218;82;20988;-75
2021/06/06 11:50:03;;;;;;;8.18;2.22;;;;;;;18.82;58.59;99909.26;1687436;83;21110;-74
2021/06/06 11:52:38;;;;;;;8.53;2.40;;;;;;;19.00;58.35;99906.67;1719795;82;21000;-74
2021/06/06 11:55:21;;;;;;;14.23;2.52;;;;;;;19.17;57.60;99905.44;1755322;79;21820;-74
2021/06/06 11:58:14;;;;;;;4.53;1.90;;;;;;;19.32;58.27;99903.55;1738744;81;21189;-74
2021/06/06 12:00:56;;;;;;;7.35;2.20;;;;;;;19.64;58.18;99898.74;1729066;81;21110;-75